createdAt,value
2023-04-06T00:03:43.588Z,101102.79
2023-04-06T00:08:45.746Z,101101.93
2023-04-06T00:13:47.624Z,101100.73
2023-04-06T00:18:49.810Z,101097.81
2023-04-06T00:23:51.484Z,101094.46
2023-04-06T00:28:53.377Z,101092.39
2023-04-06T00:33:55.158Z,101089.62
2023-04-06T00:38:56.920Z,101089.30
2023-04-06T00:43:58.799Z,101088.49
2023-04-06T00:49:00.975Z,101085.51
2023-04-06T00:54:03.152Z,101086.73
2023-04-06T00:59:05.278Z,101082.16
2023-04-06T01:04:07.214Z,101081.09
2023-04-06T01:09:09.163Z,101078.25
2023-04-06T01:14:11.483Z,101074.69
2023-04-06T01:19:14.694Z,101075.55
2023-04-06T01:24:16.988Z,101075.96
2023-04-06T01:29:18.747Z,101070.80
2023-04-06T01:34:20.626Z,101065.96
2023-04-06T01:39:22.407Z,101064.95
2023-04-06T01:44:24.037Z,101066.11
2023-04-06T01:49:26.253Z,101066.60
2023-04-06T01:54:28.032Z,101066.14
2023-04-06T01:59:29.721Z,101070.33
2023-04-06T02:04:31.579Z,101069.45
2023-04-06T02:09:33.249Z,101068.25
2023-04-06T02:14:35.429Z,101065.98
2023-04-06T02:19:37.312Z,101065.15
2023-04-06T02:24:39.159Z,101059.19
2023-04-06T02:29:40.960Z,101063.55
2023-04-06T02:34:42.635Z,101064.58
2023-04-06T02:39:44.407Z,101058.60
2023-04-06T02:44:46.487Z,101061.41
2023-04-06T02:49:48.658Z,101056.66
2023-04-06T02:54:51.679Z,101057.73
2023-04-06T02:59:53.453Z,101060.72
2023-04-06T03:04:55.221Z,101059.34
2023-04-06T03:09:56.994Z,101058.14
2023-04-06T03:14:58.872Z,101057.50
2023-04-06T03:20:01.054Z,101060.54
2023-04-06T03:25:03.837Z,101061.16
2023-04-06T03:30:06.854Z,101061.02
2023-04-06T03:35:09.488Z,101067.01
2023-04-06T03:40:11.937Z,101067.42
2023-04-06T03:45:14.736Z,101070.66
2023-04-06T03:50:16.718Z,101073.70
2023-04-06T03:55:18.691Z,101077.02
2023-04-06T04:00:20.984Z,101075.13
2023-04-06T04:05:25.767Z,101080.79
2023-04-06T04:10:27.700Z,101079.39
2023-04-06T04:15:29.576Z,101079.77
2023-04-06T04:20:31.876Z,101077.84
2023-04-06T04:25:33.768Z,101080.47
2023-04-06T04:30:35.928Z,101082.02
2023-04-06T04:35:37.924Z,101085.26
2023-04-06T04:40:40.220Z,101084.90
2023-04-06T04:45:42.194Z,101086.50
2023-04-06T04:50:44.058Z,101087.17
2023-04-06T04:55:45.730Z,101088.16
2023-04-06T05:00:47.615Z,101088.35
2023-04-06T05:05:49.809Z,101081.77
2023-04-06T05:10:51.876Z,101083.94
2023-04-06T05:15:53.909Z,101087.95
2023-04-06T05:20:56.343Z,101086.45
2023-04-06T05:25:58.323Z,101092.10
2023-04-06T05:31:00.720Z,101090.83
2023-04-06T05:36:04.353Z,101088.15
2023-04-06T05:41:06.710Z,101085.84
2023-04-06T05:46:09.059Z,101080.61
2023-04-06T05:51:11.288Z,101079.14
2023-04-06T05:56:13.058Z,101079.95
2023-04-06T06:01:14.937Z,101083.34
2023-04-06T06:06:16.915Z,101079.80
2023-04-06T06:11:18.893Z,101082.77
2023-04-06T06:16:20.714Z,101088.32
2023-04-06T06:21:23.558Z,101081.64
2023-04-06T06:26:25.848Z,101074.21
2023-04-06T06:31:27.668Z,101070.35
2023-04-06T06:36:31.239Z,101068.75
2023-04-06T06:41:33.510Z,101072.17
2023-04-06T06:46:35.622Z,101070.50
2023-04-06T06:51:37.487Z,101066.41
2023-04-06T06:56:40.235Z,101060.65
2023-04-06T07:01:42.002Z,101062.58
2023-04-06T07:06:44.221Z,101065.41
2023-04-06T07:11:46.334Z,101065.11
2023-04-06T07:16:49.542Z,101065.11
2023-04-06T07:21:51.440Z,101066.83
2023-04-06T07:26:53.076Z,101064.02
2023-04-06T07:31:55.482Z,101054.37
2023-04-06T07:36:57.342Z,101057.20
2023-04-06T07:41:59.020Z,101055.29
2023-04-06T07:47:00.894Z,101057.23
2023-04-06T07:52:04.305Z,101057.34
2023-04-06T07:57:06.138Z,101058.48
2023-04-06T08:02:08.505Z,101057.50
2023-04-06T08:07:10.982Z,101052.95
2023-04-06T08:12:12.838Z,101052.98
2023-04-06T08:17:15.246Z,101052.97
2023-04-06T08:22:17.100Z,101052.52
2023-04-06T08:27:18.915Z,101042.86
2023-04-06T08:32:20.682Z,101039.14
2023-04-06T08:37:23.668Z,101038.12
2023-04-06T08:42:29.213Z,101039.06
2023-04-06T08:47:31.111Z,101040.61
2023-04-06T08:52:34.830Z,101042.20
2023-04-06T08:57:37.505Z,101034.13
2023-04-06T09:02:41.733Z,101036.20
2023-04-06T09:07:43.718Z,101037.00
2023-04-06T09:12:45.449Z,101039.95
2023-04-06T09:17:47.631Z,101037.38
2023-04-06T09:22:50.274Z,101039.23
2023-04-06T09:28:07.614Z,101038.94
2023-04-06T09:33:10.923Z,101037.37
2023-04-06T09:38:12.916Z,101034.14
2023-04-06T09:43:30.249Z,101028.54
2023-04-06T09:48:35.976Z,101032.48
2023-04-06T09:53:42.427Z,101029.15
2023-04-06T09:58:47.728Z,101025.70
2023-04-06T10:04:13.015Z,101019.73
2023-04-06T10:09:16.070Z,101018.71
2023-04-06T10:14:18.053Z,101015.31
2023-04-06T10:19:26.606Z,101014.77
2023-04-06T10:24:28.880Z,101010.40
2023-04-06T10:29:46.246Z,101007.37
2023-04-06T10:34:47.990Z,101007.08
2023-04-06T10:39:58.779Z,101005.34
2023-04-06T10:45:00.460Z,101001.73
2023-04-06T10:50:04.571Z,100991.68
2023-04-06T10:55:11.154Z,100984.52
2023-04-06T11:00:14.495Z,100980.30
2023-04-06T11:05:16.669Z,100975.04
2023-04-06T11:10:23.456Z,100972.30
2023-04-06T11:15:25.543Z,100965.81
2023-04-06T11:20:27.222Z,100956.17
2023-04-06T11:25:33.144Z,100953.09
2023-04-06T11:30:35.053Z,100951.56
2023-04-06T11:35:38.120Z,100954.25
2023-04-06T11:40:40.033Z,100943.26
2023-04-06T11:45:44.780Z,100942.95
2023-04-06T11:50:57.307Z,100942.91
2023-04-06T11:56:00.203Z,100936.70
2023-04-06T12:01:05.799Z,100926.09
2023-04-06T12:06:08.157Z,100927.25
2023-04-06T12:11:09.932Z,100920.70
2023-04-06T12:16:11.907Z,100912.55
2023-04-06T12:21:14.087Z,100905.27
2023-04-06T12:26:16.786Z,100908.58
2023-04-06T12:31:20.019Z,100905.88
2023-04-06T12:36:22.118Z,100905.67
2023-04-06T12:41:25.484Z,100901.83
2023-04-06T12:46:27.683Z,100899.98
2023-04-06T12:51:30.054Z,100902.41
2023-04-06T12:56:32.251Z,100900.02
2023-04-06T13:01:34.214Z,100894.38
2023-04-06T13:06:36.402Z,100892.00
2023-04-06T13:11:39.411Z,100876.11
2023-04-06T13:16:41.283Z,100862.89
2023-04-06T13:21:43.155Z,100858.33
2023-04-06T13:26:46.172Z,100853.35
2023-04-06T13:31:48.109Z,100854.45
2023-04-06T13:36:50.297Z,100856.65
2023-04-06T13:41:56.700Z,100850.00
2023-04-06T13:47:00.140Z,100851.08
2023-04-06T13:52:02.419Z,100845.77
2023-04-06T13:57:05.386Z,100836.77
2023-04-06T14:02:10.145Z,100838.43
2023-04-06T14:07:12.033Z,100839.52
2023-04-06T14:12:13.919Z,100842.02
2023-04-06T14:17:15.901Z,100840.80
2023-04-06T14:22:18.376Z,100839.16
2023-04-06T14:27:20.566Z,100835.03
2023-04-06T14:32:22.402Z,100834.09
2023-04-06T14:37:24.315Z,100833.02
2023-04-06T14:42:26.701Z,100820.23
2023-04-06T14:47:28.514Z,100816.77
2023-04-06T14:52:32.571Z,100815.20
2023-04-06T14:57:35.110Z,100818.10
2023-04-06T15:02:38.546Z,100809.02
2023-04-06T15:07:41.227Z,100805.43
2023-04-06T15:12:43.494Z,100803.11
2023-04-06T15:17:45.476Z,100805.91
2023-04-06T15:22:47.360Z,100802.84
2023-04-06T15:27:49.429Z,100798.77
2023-04-06T15:32:59.004Z,100795.09
2023-04-06T15:38:02.295Z,100792.36
2023-04-06T15:43:04.180Z,100789.25
2023-04-06T15:48:07.491Z,100787.61
2023-04-06T15:53:10.145Z,100780.03
2023-04-06T15:58:12.034Z,100772.27
2023-04-06T16:03:13.973Z,100763.05
2023-04-06T16:08:16.526Z,100772.10
2023-04-06T16:13:18.418Z,100778.14
2023-04-06T16:18:20.591Z,100776.51
2023-04-06T16:23:22.776Z,100775.31
2023-04-06T16:28:25.266Z,100774.33
2023-04-06T16:33:27.243Z,100773.02
2023-04-06T16:38:35.201Z,100772.39
2023-04-06T16:43:37.139Z,100769.29
2023-04-06T16:48:39.229Z,100762.80
2023-04-06T16:53:41.920Z,100766.08
2023-04-06T16:58:45.405Z,100764.96
2023-04-06T17:03:47.835Z,100767.55
2023-04-06T17:08:50.867Z,100774.49
2023-04-06T17:13:52.906Z,100772.38
2023-04-06T17:18:54.831Z,100774.30
2023-04-06T17:23:57.035Z,100783.02
2023-04-06T17:29:00.177Z,100792.48
2023-04-06T17:34:02.663Z,100804.58
2023-04-06T17:39:05.431Z,100801.17
2023-04-06T17:44:07.323Z,100793.45
2023-04-06T17:49:09.553Z,100799.44
2023-04-06T17:54:12.026Z,100803.73
2023-04-06T17:59:15.230Z,100793.40
2023-04-06T18:04:18.083Z,100792.78
2023-04-06T18:09:20.839Z,100790.55
2023-04-06T18:14:24.043Z,100788.65
2023-04-06T18:19:29.009Z,100791.65
2023-04-06T18:24:42.371Z,100788.89
2023-04-06T18:29:47.134Z,100794.34
2023-04-06T18:34:49.642Z,100798.06
2023-04-06T18:39:54.480Z,100798.77
2023-04-06T18:44:57.499Z,100800.49
2023-04-06T18:50:00.382Z,100802.70
2023-04-06T18:55:02.353Z,100805.09
2023-04-06T19:00:07.606Z,100794.63
2023-04-06T19:05:15.179Z,100795.34
2023-04-06T19:10:19.273Z,100800.50
2023-04-06T19:15:21.716Z,100809.11
2023-04-06T19:20:24.170Z,100814.08
2023-04-06T19:25:26.436Z,100813.23
2023-04-06T19:30:29.429Z,100819.18
2023-04-06T19:35:35.384Z,100821.33
2023-04-06T19:40:39.160Z,100818.95
2023-04-06T19:45:42.455Z,100807.41
2023-04-06T19:50:46.100Z,100799.67
2023-04-06T19:55:49.198Z,100803.85
2023-04-06T20:00:52.159Z,100796.75
2023-04-06T20:05:54.625Z,100790.40
2023-04-06T20:11:16.696Z,100786.52
2023-04-06T20:16:19.251Z,100784.11
2023-04-06T20:21:22.725Z,100779.70
2023-04-06T20:26:26.742Z,100782.11
2023-04-06T20:31:31.713Z,100777.88
2023-04-06T20:36:39.381Z,100768.96
2023-04-06T20:41:43.229Z,100761.45
2023-04-06T20:46:45.884Z,100761.58
2023-04-06T20:51:49.544Z,100761.41
2023-04-06T20:56:51.729Z,100754.73
2023-04-06T21:01:53.699Z,100750.79
2023-04-06T21:06:55.799Z,100750.14
2023-04-06T21:11:57.774Z,100748.09
2023-04-06T21:17:00.475Z,100741.41
2023-04-06T21:22:02.954Z,100741.07
2023-04-06T21:27:05.155Z,100732.35
2023-04-06T21:32:07.739Z,100718.65
2023-04-06T21:37:10.096Z,100707.10
2023-04-06T21:42:12.233Z,100711.63
2023-04-06T21:47:15.036Z,100706.41
2023-04-06T21:52:16.915Z,100698.98
2023-04-06T21:57:18.785Z,100692.91
2023-04-06T22:02:21.491Z,100687.72
2023-04-06T22:07:23.669Z,100683.57
2023-04-06T22:12:26.162Z,100676.44
2023-04-06T22:17:28.874Z,100678.78
2023-04-06T22:22:30.938Z,100677.23
2023-04-06T22:27:32.914Z,100671.31
2023-04-06T22:32:43.270Z,100668.47
2023-04-06T22:37:45.390Z,100661.88
2023-04-06T22:42:47.268Z,100657.32
2023-04-06T22:47:49.462Z,100657.43
2023-04-06T22:52:51.432Z,100652.46
2023-04-06T22:57:53.605Z,100646.60
2023-04-06T23:02:55.664Z,100645.67
2023-04-06T23:07:57.660Z,100639.42
2023-04-06T23:12:59.535Z,100635.10
2023-04-06T23:18:01.671Z,100633.95
2023-04-06T23:23:03.911Z,100633.70
2023-04-06T23:28:06.088Z,100623.34
2023-04-06T23:33:07.986Z,100620.52
2023-04-06T23:38:09.943Z,100620.85
2023-04-06T23:43:14.401Z,100624.17
2023-04-06T23:48:16.461Z,100620.98
2023-04-06T23:53:18.239Z,100611.49
2023-04-06T23:58:20.833Z,100606.79
